Time;durP1;ratioP1;P1;durP2;ratioP2;P2;SDS_P1;SDS_P2;PMS_P1;PMS_P2;Temp;Humidity;BMP_temperature;BMP_pressure;BME280_temperature;BME280_humidity;BME280_pressure;Samples;Min_cycle;Max_cycle;Signal;HPM_P1;HPM_P2
2023/08/28 00:01:51;;;;;;;;;;;;;;;14.22;100.00;95390.16;10522854;28;2001;-82
2023/08/28 00:06:54;;;;;;;;;;;;;;;14.18;100.00;95379.13;10520742;28;2183;-81
2023/08/28 00:11:56;;;;;;;;;;;;;;;14.15;100.00;95368.16;10523683;28;2015;-80
2023/08/28 00:16:58;;;;;;;;;;;;;;;14.16;100.00;95362.44;10522171;28;1909;-82
2023/08/28 00:22:01;;;;;;;;;;;;;;;14.21;100.00;95339.91;10532312;28;1899;-86
2023/08/28 00:27:03;;;;;;;;;;;;;;;14.18;100.00;95324.28;10521692;28;2769;-84
2023/08/28 00:32:06;;;;;;;;;;;;;;;14.12;100.00;95328.22;10534320;28;2115;-80
2023/08/28 00:37:08;;;;;;;;;;;;;;;13.94;100.00;95325.38;10536650;28;1953;-80
2023/08/28 00:42:10;;;;;;;;;;;;;;;13.86;100.00;95328.78;10532434;28;4579;-80
2023/08/28 00:47:13;;;;;;;;;;;;;;;13.83;100.00;95345.63;10532130;28;2413;-80
2023/08/28 00:52:16;;;;;;;;;;;;;;;13.91;100.00;95360.31;10525491;28;2926;-81
2023/08/28 00:57:19;;;;;;;;;;;;;;;13.97;100.00;95367.19;10537287;28;1914;-83
2023/08/28 01:02:21;;;;;;;;;;;;;;;13.95;100.00;95354.00;10531416;28;1995;-81
2023/08/28 01:07:24;;;;;;;;;;;;;;;13.83;100.00;95345.63;10524238;28;2000;-79
2023/08/28 01:12:26;;;;;;;;;;;;;;;13.71;100.00;95342.66;10531905;28;2113;-80
2023/08/28 01:17:29;;;;;;;;;;;;;;;13.72;100.00;95345.03;10526603;28;1864;-81
2023/08/28 01:22:31;;;;;;;;;;;;;;;13.62;100.00;95330.97;10521725;28;1906;-80
2023/08/28 01:27:34;;;;;;;;;;;;;;;13.62;100.00;95345.28;10525409;28;1926;-81
2023/08/28 01:32:36;;;;;;;;;;;;;;;13.66;100.00;95348.16;10526189;28;1984;-81
2023/08/28 01:37:39;;;;;;;;;;;;;;;13.72;100.00;95336.16;10526007;28;1900;-82
2023/08/28 01:42:41;;;;;;;;;;;;;;;13.72;100.00;95333.44;10524265;28;4722;-81
2023/08/28 01:47:43;;;;;;;;;;;;;;;13.63;100.00;95327.19;10519797;28;1919;-81
2023/08/28 01:52:46;;;;;;;;;;;;;;;13.49;100.00;95319.09;10531436;28;1976;-84
2023/08/28 01:57:48;;;;;;;;;;;;;;;13.55;100.00;95327.88;10531240;28;1875;-82
2023/08/28 02:02:51;;;;;;;;;;;;;;;13.42;100.00;95316.81;10521952;28;2101;-80
2023/08/28 02:07:53;;;;;;;;;;;;;;;13.34;100.00;95317.50;10525517;28;1905;-82
2023/08/28 02:12:55;;;;;;;;;;;;;;;13.14;100.00;95301.72;10526144;28;1981;-81
2023/08/28 02:17:58;;;;;;;;;;;;;;;13.16;100.00;95286.00;10531366;28;2360;-80
2023/08/28 02:23:00;;;;;;;;;;;;;;;13.28;100.00;95272.03;10531346;28;1979;-80
2023/08/28 02:28:03;;;;;;;;;;;;;;;13.20;100.00;95268.13;10533697;28;1955;-81
2023/08/28 02:33:05;;;;;;;;;;;;;;;13.09;100.00;95262.13;10531453;28;1917;-80
2023/08/28 02:38:09;;;;;;;;;;;;;;;12.92;100.00;95246.56;10531424;28;1906;-80
2023/08/28 02:43:11;;;;;;;;;;;;;;;12.87;100.00;95238.56;10532805;28;2088;-81
2023/08/28 02:48:14;;;;;;;;;;;;;;;12.97;100.00;95254.53;10531658;28;1816;-81
2023/08/28 02:53:16;;;;;;;;;;;;;;;12.89;100.00;95252.56;10538248;28;1904;-81
2023/08/28 02:58:18;;;;;;;;;;;;;;;12.84;100.00;95254.53;10539460;28;2009;-81
2023/08/28 03:03:22;;;;;;;;;;;;;;;12.83;100.00;95255.66;10538565;28;1924;-84
2023/08/28 03:08:25;;;;;;;;;;;;;;;12.88;100.00;95245.56;10528706;28;2065;-80
2023/08/28 03:13:27;;;;;;;;;;;;;;;12.91;100.00;95246.84;10529967;28;2333;-80
2023/08/28 03:18:29;;;;;;;;;;;;;;;12.90;100.00;95251.44;10526210;28;1993;-81
2023/08/28 03:23:32;;;;;;;;;;;;;;;13.02;100.00;95250.16;10532449;28;1995;-80
2023/08/28 03:28:34;;;;;;;;;;;;;;;12.99;100.00;95257.75;10528782;28;1938;-80
2023/08/28 03:33:37;;;;;;;;;;;;;;;13.04;100.00;95259.56;10529739;28;1910;-79
2023/08/28 03:38:39;;;;;;;;;;;;;;;13.10;100.00;95255.63;10529578;28;1910;-77
2023/08/28 03:43:42;;;;;;;;;;;;;;;12.87;100.00;95257.47;10532426;28;1901;-77
2023/08/28 03:48:44;;;;;;;;;;;;;;;12.86;100.00;95260.47;10539231;28;1867;-78
2023/08/28 03:53:47;;;;;;;;;;;;;;;12.74;100.00;95266.34;10532915;28;1897;-78
2023/08/28 03:58:49;;;;;;;;;;;;;;;12.77;100.00;95254.94;10531918;28;1983;-82
2023/08/28 04:03:51;;;;;;;;;;;;;;;12.95;100.00;95231.66;10535935;28;1866;-82
2023/08/28 04:08:54;;;;;;;;;;;;;;;12.77;100.00;95229.88;10523642;28;1960;-80
2023/08/28 04:13:56;;;;;;;;;;;;;;;12.79;100.00;95225.81;10529143;28;2042;-80
2023/08/28 04:18:59;;;;;;;;;;;;;;;12.80;100.00;95216.59;10531780;28;2009;-79
2023/08/28 04:24:01;;;;;;;;;;;;;;;12.96;100.00;95198.97;10532421;28;1997;-81
2023/08/28 04:29:04;;;;;;;;;;;;;;;12.77;100.00;95167.84;10528359;28;2036;-80
2023/08/28 04:34:06;;;;;;;;;;;;;;;12.70;100.00;95168.25;10526343;28;1921;-82
2023/08/28 04:39:09;;;;;;;;;;;;;;;12.71;100.00;95167.16;10524451;28;1937;-80
2023/08/28 04:44:11;;;;;;;;;;;;;;;12.76;100.00;95171.66;10524580;28;4504;-80
2023/08/28 04:49:14;;;;;;;;;;;;;;;12.79;100.00;95139.50;10524271;28;2055;-86
2023/08/28 04:54:17;;;;;;;;;;;;;;;12.85;100.00;95175.22;10521226;28;1948;-81
2023/08/28 04:59:19;;;;;;;;;;;;;;;12.93;100.00;95169.13;10523294;28;2136;-83
2023/08/28 05:04:21;;;;;;;;;;;;;;;12.92;100.00;95171.03;10521400;28;2631;-82
2023/08/28 05:09:24;;;;;;;;;;;;;;;12.88;100.00;95170.03;10525983;28;1892;-82
2023/08/28 05:14:26;;;;;;;;;;;;;;;12.80;100.00;95170.75;10530255;28;1926;-87
2023/08/28 05:19:29;;;;;;;;;;;;;;;12.99;100.00;95160.63;10531139;28;1882;-86
2023/08/28 05:24:31;;;;;;;;;;;;;;;12.87;100.00;95124.50;10529202;28;1895;-86
2023/08/28 05:29:34;;;;;;;;;;;;;;;12.82;100.00;95119.19;10541178;28;2266;-86
2023/08/28 05:34:36;;;;;;;;;;;;;;;12.77;100.00;95120.09;10527382;28;1914;-78
2023/08/28 05:39:39;;;;;;;;;;;;;;;12.67;100.00;95104.16;10535419;28;1894;-81
2023/08/28 05:44:42;;;;;;;;;;;;;;;12.73;100.00;95099.47;10522376;28;4708;-80
2023/08/28 05:49:47;;;;;;;;;;;;;;;12.50;100.00;95099.38;10520328;28;1990;-77
2023/08/28 05:54:50;;;;;;;;;;;;;;;12.54;100.00;95041.06;10526834;28;1922;-75
2023/08/28 05:59:52;;;;;;;;;;;;;;;12.50;100.00;94980.78;10527050;28;2394;-75
2023/08/28 06:04:55;;;;;;;;;;;;;;;12.45;100.00;95005.13;10526111;28;1957;-80
2023/08/28 06:09:57;;;;;;;;;;;;;;;12.34;100.00;95018.06;10532288;28;1926;-80
2023/08/28 06:15:00;;;;;;;;;;;;;;;12.49;100.00;95033.09;10530365;28;2020;-80
2023/08/28 06:20:04;;;;;;;;;;;;;;;12.50;100.00;95047.38;10527909;28;1892;-80
2023/08/28 06:25:08;;;;;;;;;;;;;;;12.63;100.00;95051.94;10525025;28;1906;-84
2023/08/28 06:30:10;;;;;;;;;;;;;;;12.64;100.00;95056.22;10525356;28;1866;-80
2023/08/28 06:35:13;;;;;;;;;;;;;;;12.74;100.00;95074.09;10519005;28;1976;-80
2023/08/28 06:40:15;;;;;;;;;;;;;;;12.77;100.00;95087.75;10527430;28;1945;-79
2023/08/28 06:45:17;;;;;;;;;;;;;;;12.67;100.00;95071.81;10523462;28;4719;-80
2023/08/28 06:50:20;;;;;;;;;;;;;;;12.91;100.00;95064.22;10529226;28;1823;-85
2023/08/28 06:55:23;;;;;;;;;;;;;;;12.65;100.00;95055.09;10542030;28;2031;-90
2023/08/28 07:00:26;;;;;;;;;;;;;;;12.49;100.00;95037.69;10527339;28;2307;-84
2023/08/28 07:05:28;;;;;;;;;;;;;;;12.50;100.00;95036.59;10524766;28;1959;-86
2023/08/28 07:10:31;;;;;;;;;;;;;;;12.73;100.00;95042.81;10536633;28;1885;-87
2023/08/28 07:15:33;;;;;;;;;;;;;;;12.58;100.00;95025.88;10524432;28;2022;-84
2023/08/28 07:20:35;;;;;;;;;;;;;;;12.86;100.00;95037.38;10530015;28;1918;-83
2023/08/28 07:25:38;;;;;;;;;;;;;;;12.60;100.00;95029.09;10522598;28;1554;-84
2023/08/28 07:30:41;;;;;;;;;;;;;;;12.55;100.00;95031.88;10517272;28;1980;-81
2023/08/28 07:35:43;;;;;;;;;;;;;;;12.50;100.00;95015.03;10520525;28;1934;-79
2023/08/28 07:40:46;;;;;;;;;;;;;;;12.53;100.00;94988.22;10515601;28;1882;-84
2023/08/28 07:45:48;;;;;;;;;;;;;;;12.45;100.00;94962.81;10528181;28;1882;-85
2023/08/28 07:50:51;;;;;;;;;;;;;;;12.47;100.00;94981.41;10543150;28;2192;-84
2023/08/28 07:55:53;;;;;;;;;;;;;;;12.57;100.00;95024.28;10552520;28;2264;-86
2023/08/28 08:00:56;;;;;;;;;;;;;;;12.63;100.00;95054.63;10543382;28;2235;-81
2023/08/28 08:05:59;;;;;;;;;;;;;;;12.69;100.00;95069.59;10554115;28;1910;-86
2023/08/28 08:11:01;;;;;;;;;;;;;;;12.58;100.00;95079.00;10549463;28;2054;-85
2023/08/28 08:16:04;;;;;;;;;;;;;;;12.61;100.00;95086.50;10517974;28;1990;-74
2023/08/28 08:21:07;;;;;;;;;;;;;;;12.59;100.00;95091.38;10519213;28;2023;-76
2023/08/28 08:26:10;;;;;;;;;;;;;;;12.45;100.00;95108.38;10516509;28;1998;-76
2023/08/28 08:31:12;;;;;;;;;;;;;;;12.43;100.00;95128.66;10510602;28;2090;-75
2023/08/28 08:36:15;;;;;;;;;;;;;;;12.60;100.00;95139.63;10514994;28;2011;-75
2023/08/28 08:41:17;;;;;;;;;;;;;;;12.59;100.00;95131.81;10518652;28;4579;-74
2023/08/28 08:46:20;;;;;;;;;;;;;;;12.84;100.00;95120.47;10516534;28;2008;-75
2023/08/28 08:51:22;;;;;;;;;;;;;;;12.85;100.00;95122.09;10502529;28;2574;-74
2023/08/28 08:56:25;;;;;;;;;;;;;;;12.87;100.00;95125.28;10507607;28;1927;-78
2023/08/28 09:01:27;;;;;;;;;;;;;;;12.71;100.00;95132.09;10514986;28;1886;-74
2023/08/28 09:06:30;;;;;;;;;;;;;;;12.66;100.00;95103.38;10516184;28;2033;-76
2023/08/28 09:11:32;;;;;;;;;;;;;;;12.76;100.00;95040.31;10507580;28;1993;-74
2023/08/28 09:16:35;;;;;;;;;;;;;;;12.56;100.00;94973.38;10510366;28;2008;-76
2023/08/28 09:21:37;;;;;;;;;;;;;;;12.62;100.00;94926.31;10515657;28;2009;-72
2023/08/28 09:26:40;;;;;;;;;;;;;;;12.63;100.00;94877.47;10517182;28;2161;-76
2023/08/28 09:31:42;;;;;;;;;;;;;;;12.64;100.00;94921.41;10526051;28;1910;-73
2023/08/28 09:36:45;;;;;;;;;;;;;;;13.11;100.00;94954.25;10516461;28;1807;-76
2023/08/28 09:41:47;;;;;;;;;;;;;;;13.37;100.00;94963.28;10518882;28;4581;-75
2023/08/28 09:46:50;;;;;;;;;;;;;;;13.75;100.00;94941.19;10523889;28;1936;-75
2023/08/28 09:51:52;;;;;;;;;;;;;;;13.95;100.00;94959.53;10530095;28;1994;-75
2023/08/28 09:56:55;;;;;;;;;;;;;;;14.06;100.00;94966.22;10518129;28;1954;-74
2023/08/28 10:01:57;;;;;;;;;;;;;;;13.94;100.00;94944.41;10522708;28;1780;-76
2023/08/28 10:07:14;;;;;;;;;;;;;;;14.28;100.00;94945.56;10515944;28;1850;-76
2023/08/28 10:12:16;;;;;;;;;;;;;;;14.45;100.00;94934.78;10522714;28;1984;-76
2023/08/28 10:17:19;;;;;;;;;;;;;;;14.64;100.00;94929.06;10521873;28;1842;-76
2023/08/28 10:22:21;;;;;;;;;;;;;;;14.28;100.00;94919.34;10522178;28;1831;-79
2023/08/28 10:27:23;;;;;;;;;;;;;;;14.48;100.00;94938.78;10517873;28;1858;-79
2023/08/28 10:32:26;;;;;;;;;;;;;;;14.84;100.00;94946.56;10521017;28;2003;-75
2023/08/28 10:37:28;;;;;;;;;;;;;;;14.87;100.00;94916.94;10513998;28;2015;-76
2023/08/28 10:42:31;;;;;;;;;;;;;;;15.35;100.00;94888.78;10516433;28;4508;-79
2023/08/28 10:47:33;;;;;;;;;;;;;;;14.83;100.00;94901.69;10520774;28;1858;-77
2023/08/28 10:52:35;;;;;;;;;;;;;;;15.12;100.00;94915.28;10525014;28;1910;-76
2023/08/28 10:57:40;;;;;;;;;;;;;;;15.17;100.00;94908.13;10515141;28;1937;-77
2023/08/28 11:02:42;;;;;;;;;;;;;;;14.88;100.00;94913.09;10515956;28;1917;-77
2023/08/28 11:07:45;;;;;;;;;;;;;;;14.81;100.00;94887.66;10513799;28;1986;-77
2023/08/28 11:12:47;;;;;;;;;;;;;;;14.72;100.00;94873.38;10519257;28;1914;-77
2023/08/28 11:17:50;;;;;;;;;;;;;;;14.83;100.00;94880.03;10510907;28;1890;-77
2023/08/28 11:22:52;;;;;;;;;;;;;;;15.84;100.00;94859.41;10521145;28;1842;-76
2023/08/28 11:27:56;;;;;;;;;;;;;;;16.10;100.00;94844.88;10525245;28;1839;-76
2023/08/28 11:32:59;;;;;;;;;;;;;;;16.24;100.00;94856.22;10520727;28;1981;-76
2023/08/28 11:38:01;;;;;;;;;;;;;;;15.91;100.00;94845.31;10523758;28;1525;-76
2023/08/28 11:43:04;;;;;;;;;;;;;;;15.67;100.00;94848.66;10510613;28;4468;-76
2023/08/28 11:48:07;;;;;;;;;;;;;;;15.73;100.00;94833.81;10514426;28;2052;-76
2023/08/28 11:53:09;;;;;;;;;;;;;;;15.68;100.00;94828.56;10509971;28;1979;-75
2023/08/28 11:58:12;;;;;;;;;;;;;;;15.83;100.00;94824.47;10510335;28;1499;-77
2023/08/28 12:03:14;;;;;;;;;;;;;;;15.72;100.00;94820.59;10519761;28;1426;-77
2023/08/28 12:08:17;;;;;;;;;;;;;;;15.41;100.00;94835.25;10519424;28;1651;-76
2023/08/28 12:13:19;;;;;;;;;;;;;;;15.52;100.00;94825.59;10516146;28;1910;-76
2023/08/28 12:18:21;;;;;;;;;;;;;;;15.44;100.00;94828.38;10513380;28;1596;-76
2023/08/28 12:23:24;;;;;;;;;;;;;;;15.29;100.00;94816.97;10521679;28;1482;-74
2023/08/28 12:28:27;;;;;;;;;;;;;;;14.67;100.00;94822.16;10517297;28;1749;-76
2023/08/28 12:33:29;;;;;;;;;;;;;;;14.39;100.00;94832.53;10511007;28;2173;-75
2023/08/28 12:38:31;;;;;;;;;;;;;;;14.56;100.00;94844.09;10508170;28;1458;-76
2023/08/28 12:43:34;;;;;;;;;;;;;;;14.60;100.00;94839.66;10522514;28;4389;-75
2023/08/28 12:48:36;;;;;;;;;;;;;;;14.36;100.00;94842.03;10518772;28;1499;-74
2023/08/28 12:53:39;;;;;;;;;;;;;;;14.21;100.00;94834.44;10510748;28;1901;-75
2023/08/28 12:58:41;;;;;;;;;;;;;;;14.30;100.00;94840.63;10521313;28;1739;-76
2023/08/28 13:03:46;;;;;;;;;;;;;;;14.19;100.00;94844.78;10521910;28;1439;-77
2023/08/28 13:08:49;;;;;;;;;;;;;;;14.44;100.00;94871.00;10516687;28;1509;-79
2023/08/28 13:13:53;;;;;;;;;;;;;;;13.91;100.00;94877.50;10519420;28;1905;-78
2023/08/28 13:18:55;;;;;;;;;;;;;;;13.82;100.00;94840.78;10514090;28;1530;-79
2023/08/28 13:23:58;;;;;;;;;;;;;;;13.86;100.00;94831.72;10517936;28;1486;-77
2023/08/28 13:29:00;;;;;;;;;;;;;;;13.85;100.00;94832.84;10518122;28;1507;-79
2023/08/28 13:34:03;;;;;;;;;;;;;;;13.95;100.00;94835.22;10511045;28;2021;-77
2023/08/28 13:39:07;;;;;;;;;;;;;;;14.24;100.00;94814.88;10501976;28;1416;-77
2023/08/28 13:44:09;;;;;;;;;;;;;;;14.05;100.00;94793.56;10519837;28;4544;-77
2023/08/28 13:49:11;;;;;;;;;;;;;;;13.86;100.00;94799.31;10520307;28;1377;-78
2023/08/28 13:54:15;;;;;;;;;;;;;;;13.83;100.00;94810.75;10525639;28;1905;-76
2023/08/28 13:59:17;;;;;;;;;;;;;;;13.84;100.00;94796.13;10525971;28;1526;-78
2023/08/28 14:04:19;;;;;;;;;;;;;;;13.88;100.00;94817.91;10521788;28;1621;-80
2023/08/28 14:09:22;;;;;;;;;;;;;;;14.02;100.00;94843.66;10524530;28;1526;-81
2023/08/28 14:14:24;;;;;;;;;;;;;;;13.63;100.00;94838.38;10529043;28;1973;-81
2023/08/28 14:19:27;;;;;;;;;;;;;;;13.53;100.00;94834.84;10533439;28;1387;-80
2023/08/28 14:24:30;;;;;;;;;;;;;;;13.64;100.00;94839.97;10521218;28;1565;-80
2023/08/28 14:29:32;;;;;;;;;;;;;;;13.86;100.00;94852.53;10520197;28;2413;-77
2023/08/28 14:34:35;;;;;;;;;;;;;;;13.62;100.00;94847.59;10520193;28;1981;-77
2023/08/28 14:39:37;;;;;;;;;;;;;;;13.53;100.00;94845.66;10528894;28;1768;-76
2023/08/28 14:44:39;;;;;;;;;;;;;;;13.48;100.00;94837.69;10529317;28;4498;-76
2023/08/28 14:49:42;;;;;;;;;;;;;;;13.26;100.00;94829.72;10530991;28;1451;-78
2023/08/28 14:54:44;;;;;;;;;;;;;;;13.13;100.00;94809.00;10528152;28;1917;-78
2023/08/28 14:59:47;;;;;;;;;;;;;;;12.89;100.00;94798.59;10517974;28;1478;-76
2023/08/28 15:04:49;;;;;;;;;;;;;;;12.99;100.00;94788.34;10523663;28;1569;-76
2023/08/28 15:09:52;;;;;;;;;;;;;;;13.51;100.00;94798.50;10521874;28;1473;-76
2023/08/28 15:14:54;;;;;;;;;;;;;;;13.54;100.00;94787.03;10524079;28;1953;-76
2023/08/28 15:19:57;;;;;;;;;;;;;;;13.70;100.00;94798.19;10526375;28;1719;-74
2023/08/28 15:24:59;;;;;;;;;;;;;;;13.78;100.00;94792.78;10521919;28;2377;-73
2023/08/28 15:30:01;;;;;;;;;;;;;;;13.44;100.00;94784.66;10523138;28;1749;-72
2023/08/28 15:35:04;;;;;;;;;;;;;;;13.53;100.00;94786.25;10534561;28;1910;-72
2023/08/28 15:40:07;;;;;;;;;;;;;;;13.56;100.00;94784.06;10528047;28;1541;-72
2023/08/28 15:45:10;;;;;;;;;;;;;;;13.43;100.00;94764.97;10523910;28;1593;-71
2023/08/28 15:50:12;;;;;;;;;;;;;;;13.37;100.00;94785.13;10519837;28;1503;-73
2023/08/28 15:55:15;;;;;;;;;;;;;;;13.24;100.00;94786.06;10520213;28;1914;-73
2023/08/28 16:00:17;;;;;;;;;;;;;;;13.27;100.00;94782.72;10520975;28;1484;-75
2023/08/28 16:05:20;;;;;;;;;;;;;;;13.31;100.00;94791.00;10522060;28;1490;-73
2023/08/28 16:10:22;;;;;;;;;;;;;;;13.25;100.00;94806.53;10522294;28;1442;-73
2023/08/28 16:15:25;;;;;;;;;;;;;;;13.16;100.00;94802.97;10518373;28;1918;-72
2023/08/28 16:20:30;;;;;;;;;;;;;;;13.19;100.00;94800.47;10518624;28;1644;-72
2023/08/28 16:25:33;;;;;;;;;;;;;;;12.99;100.00;94777.53;10523281;28;1801;-77
2023/08/28 16:30:35;;;;;;;;;;;;;;;13.06;100.00;94762.81;10517241;28;1822;-77
2023/08/28 16:35:37;;;;;;;;;;;;;;;13.04;100.00;94765.00;10517301;28;1910;-77
2023/08/28 16:40:40;;;;;;;;;;;;;;;13.04;100.00;94768.53;10516184;28;4326;-78
2023/08/28 16:45:42;;;;;;;;;;;;;;;12.98;100.00;94781.34;10519000;28;1997;-79
2023/08/28 16:50:45;;;;;;;;;;;;;;;12.84;100.00;94783.34;10516711;28;1830;-77
2023/08/28 16:55:48;;;;;;;;;;;;;;;12.74;100.00;94780.94;10523235;28;1942;-78
2023/08/28 17:00:50;;;;;;;;;;;;;;;12.83;100.00;94795.25;10518594;28;1881;-78
2023/08/28 17:05:53;;;;;;;;;;;;;;;12.72;100.00;94815.50;10526275;28;1987;-80
2023/08/28 17:10:56;;;;;;;;;;;;;;;12.46;100.00;94818.06;10518685;28;1875;-78
2023/08/28 17:15:58;;;;;;;;;;;;;;;12.35;100.00;94822.91;10525797;28;2339;-78
2023/08/28 17:21:01;;;;;;;;;;;;;;;12.21;100.00;94822.16;10517006;28;1846;-79
2023/08/28 17:26:03;;;;;;;;;;;;;;;12.29;100.00;94817.97;10521894;28;1811;-79
2023/08/28 17:31:07;;;;;;;;;;;;;;;12.33;100.00;94808.16;10537409;28;1872;-81
2023/08/28 17:36:21;;;;;;;;;;;;;;;12.31;100.00;94821.13;10529550;28;1923;-80
2023/08/28 17:41:34;;;;;;;;;;;;;;;12.28;100.00;94833.34;10526537;28;4567;-80
2023/08/28 17:46:39;;;;;;;;;;;;;;;12.27;100.00;94841.72;10529635;28;1986;-79
2023/08/28 17:52:01;;;;;;;;;;;;;;;12.29;100.00;94816.06;10542904;28;1904;-80
2023/08/28 18:03:04;;;;;;;;;;;;;;;12.28;100.00;94805.56;10536448;28;1682;-78
2023/08/28 18:08:30;;;;;;;;;;;;;;;12.22;100.00;94806.84;10529531;28;1994;-80
2023/08/28 18:18:57;;;;;;;;;;;;;;;12.20;100.00;94834.06;10534232;28;1678;-80
2023/08/28 18:24:03;;;;;;;;;;;;;;;12.18;100.00;94838.97;10531907;28;1871;-77
2023/08/28 18:29:11;;;;;;;;;;;;;;;12.16;100.00;94830.41;10533898;28;1908;-78
2023/08/28 18:34:55;;;;;;;;;;;;;;;12.07;100.00;94813.38;10534789;28;1965;-80
2023/08/28 18:40:01;;;;;;;;;;;;;;;12.00;100.00;94810.31;10534031;28;1926;-81
2023/08/28 18:45:04;;;;;;;;;;;;;;;11.89;100.00;94818.59;10530490;28;4398;-77
2023/08/28 18:50:16;;;;;;;;;;;;;;;11.85;100.00;94835.69;10539184;28;1799;-77
2023/08/28 18:55:32;;;;;;;;;;;;;;;11.88;100.00;94853.94;10535828;28;1979;-79
2023/08/28 19:00:39;;;;;;;;;;;;;;;11.90;100.00;94867.91;10529370;28;1878;-79
2023/08/28 19:05:48;;;;;;;;;;;;;;;11.69;100.00;94875.59;10533582;28;1917;-75
2023/08/28 19:11:10;;;;;;;;;;;;;;;11.64;100.00;94854.16;10532770;28;2159;-77
2023/08/28 19:16:36;;;;;;;;;;;;;;;11.62;100.00;94849.06;10502819;28;1909;-79
2023/08/28 19:21:46;;;;;;;;;;;;;;;11.61;100.00;94854.75;10533770;28;1653;-79
2023/08/28 19:26:50;;;;;;;;;;;;;;;11.63;100.00;94860.63;10537002;28;1506;-79
2023/08/28 19:32:16;;;;;;;;;;;;;;;11.64;100.00;94867.59;10538844;28;1510;-77
2023/08/28 19:37:58;;;;;;;;;;;;;;;11.64;100.00;94884.59;10530610;28;1898;-79
2023/08/28 19:43:13;;;;;;;;;;;;;;;11.52;100.00;94868.16;10532853;28;1764;-80
2023/08/28 19:48:37;;;;;;;;;;;;;;;;;;;;;
2023/08/28 19:53:59;;;;;;;;;;;;;;;11.54;100.00;94873.22;10532568;28;1742;-77
2023/08/28 19:59:13;;;;;;;;;;;;;;;11.46;100.00;94898.16;10532856;28;1911;-79
2023/08/28 20:04:19;;;;;;;;;;;;;;;11.43;100.00;94898.75;10531035;28;2247;-78
2023/08/28 20:14:48;;;;;;;;;;;;;;;11.37;100.00;94892.66;10528395;28;1964;-77
2023/08/28 20:19:54;;;;;;;;;;;;;;;11.40;100.00;94893.97;10532076;28;1513;-79
2023/08/28 20:25:00;;;;;;;;;;;;;;;11.43;100.00;94883.38;10560608;27;1493;-77
2023/08/28 20:30:04;;;;;;;;;;;;;;;11.39;100.00;94887.78;10531941;28;1486;-77
2023/08/28 20:35:14;;;;;;;;;;;;;;;11.34;100.00;94887.91;10533660;28;1913;-77
2023/08/28 20:40:22;;;;;;;;;;;;;;;11.36;100.00;94870.34;10534849;28;1986;-77
2023/08/28 20:45:29;;;;;;;;;;;;;;;11.30;100.00;94863.47;10527830;28;4524;-78
2023/08/28 20:50:35;;;;;;;;;;;;;;;11.30;100.00;94860.78;10522178;28;1888;-79
2023/08/28 20:55:44;;;;;;;;;;;;;;;11.27;100.00;94868.66;10539546;28;1934;-78
2023/08/28 21:06:11;;;;;;;;;;;;;;;11.16;100.00;94880.72;10517788;28;1939;-79
2023/08/28 21:11:23;;;;;;;;;;;;;;;11.16;100.00;94889.59;10531810;28;1839;-78
2023/08/28 21:16:44;;;;;;;;;;;;;;;11.17;100.00;94877.72;10534592;28;1984;-76
2023/08/28 21:21:47;;;;;;;;;;;;;;;11.09;100.00;94899.94;10530190;28;1688;-77
2023/08/28 21:26:52;;;;;;;;;;;;;;;11.02;100.00;94894.16;10520054;28;1902;-78
2023/08/28 21:32:00;;;;;;;;;;;;;;;11.00;100.00;94886.38;10530306;28;1885;-78
2023/08/28 21:37:23;;;;;;;;;;;;;;;11.04;100.00;94865.06;10531168;28;2235;-80
2023/08/28 21:42:31;;;;;;;;;;;;;;;11.06;100.00;94855.59;10521943;28;1890;-78
2023/08/28 21:47:36;;;;;;;;;;;;;;;11.12;100.00;94864.38;10524932;28;2046;-76
2023/08/28 21:52:43;;;;;;;;;;;;;;;11.11;100.00;94865.47;10531557;28;2015;-77
2023/08/28 21:57:53;;;;;;;;;;;;;;;11.13;100.00;94857.88;10521805;28;2425;-77
2023/08/28 22:03:09;;;;;;;;;;;;;;;11.15;100.00;94847.66;10517828;28;1882;-77
2023/08/28 22:08:17;;;;;;;;;;;;;;;10.97;100.00;94849.34;10521044;28;1991;-76
2023/08/28 22:13:22;;;;;;;;;;;;;;;10.93;100.00;94853.69;10512014;28;2007;-75
2023/08/28 22:18:33;;;;;;;;;;;;;;;11.02;100.00;94843.06;10526759;28;1942;-78
2023/08/28 22:23:44;;;;;;;;;;;;;;;10.95;100.00;94853.41;10521391;28;1693;-76
2023/08/28 22:28:48;;;;;;;;;;;;;;;10.98;100.00;94850.13;10530400;28;2005;-77
2023/08/28 22:33:52;;;;;;;;;;;;;;;10.96;100.00;94838.88;10523102;28;2051;-77
2023/08/28 22:38:55;;;;;;;;;;;;;;;10.91;100.00;94828.22;10528925;28;1926;-77
2023/08/28 22:43:57;;;;;;;;;;;;;;;10.94;100.00;94827.59;10525322;28;4446;-76
2023/08/28 22:48:59;;;;;;;;;;;;;;;10.89;100.00;94823.16;10530512;28;1952;-76
2023/08/28 22:54:02;;;;;;;;;;;;;;;10.91;100.00;94822.84;10529812;28;2233;-76
2023/08/28 22:59:04;;;;;;;;;;;;;;;10.94;100.00;94841.06;10530067;28;1931;-76
2023/08/28 23:04:07;;;;;;;;;;;;;;;10.89;100.00;94851.94;10525414;28;1886;-75
2023/08/28 23:09:10;;;;;;;;;;;;;;;10.80;100.00;94844.53;10537074;28;1941;-74
2023/08/28 23:14:12;;;;;;;;;;;;;;;10.81;100.00;94832.69;10534832;28;1886;-75
2023/08/28 23:19:15;;;;;;;;;;;;;;;10.78;100.00;94825.22;10532210;28;1953;-75
2023/08/28 23:24:17;;;;;;;;;;;;;;;10.76;100.00;94827.41;10528698;28;1914;-76
2023/08/28 23:29:19;;;;;;;;;;;;;;;10.87;100.00;94819.13;10534747;28;1955;-75
2023/08/28 23:34:22;;;;;;;;;;;;;;;10.83;100.00;94821.66;10527536;28;1886;-75
2023/08/28 23:39:25;;;;;;;;;;;;;;;10.83;100.00;94829.72;10527504;28;1988;-75
2023/08/28 23:44:28;;;;;;;;;;;;;;;10.87;100.00;94829.91;10523837;28;4889;-76
2023/08/28 23:49:30;;;;;;;;;;;;;;;10.94;100.00;94838.34;10528804;28;2378;-76
2023/08/28 23:54:32;;;;;;;;;;;;;;;10.89;100.00;94830.41;10529452;28;1965;-77
2023/08/28 23:59:35;;;;;;;;;;;;;;;10.94;100.00;94825.75;10530947;28;1918;-76
